Big Lake, Indiana
Current Conditions -  °F | °C
As of 5:54 AM on Friday 24 Oct 2014 (Local Time) from KFWA Reporting Station
Few Clouds Few Clouds  
Wind Chill: 36°   Ceiling: Unl
Heat Index: 39°   Visibility: 10mi
Dew Point: 36°   Wind: 5mph
Humidity: 89%   Direction: 160°SSE
Pressure: 30.1"   Gusts: NA
Location:  41.1479°N, 85.4772°W
Report Text: KFWA 240954Z 16004KT 10SM FEW070 FEW230 04/02 A3010 RMK AO2 SLP196 T00390022
Loading
Personal Weather Stations






























Interactive Weather Map
Tropical Storm Tracking
New forecast layout! Learn more

10-Day Weather Forecast

Advertisements
Track Severe Weather on mobile